createdAt,value
2019-03-31T00:01:15.611Z,110.17
2019-03-31T00:02:21.188Z,104.97
2019-03-31T00:03:26.152Z,123.23
2019-03-31T00:04:31.003Z,106.60
2019-03-31T00:05:37.425Z,98.33
2019-03-31T00:06:42.736Z,109.20
2019-03-31T00:07:47.697Z,100.10
2019-03-31T00:08:52.551Z,97.77
2019-03-31T00:09:57.502Z,99.90
2019-03-31T00:11:02.443Z,97.23
2019-03-31T00:12:07.539Z,92.67
2019-03-31T00:13:12.406Z,102.90
2019-03-31T00:14:17.500Z,101.87
2019-03-31T00:15:22.382Z,92.60
2019-03-31T00:16:27.296Z,88.57
2019-03-31T00:17:32.169Z,82.63
2019-03-31T00:18:37.091Z,89.53
2019-03-31T00:19:41.982Z,86.93
2019-03-31T00:20:46.982Z,88.17
2019-03-31T00:21:51.902Z,86.67
2019-03-31T00:22:56.737Z,88.50
2019-03-31T00:24:01.737Z,89.67
2019-03-31T00:25:06.755Z,93.27
2019-03-31T00:26:11.942Z,94.97
2019-03-31T00:27:16.985Z,94.27
2019-03-31T00:28:22.409Z,87.27
2019-03-31T00:29:27.352Z,80.33
2019-03-31T00:30:32.330Z,80.10
2019-03-31T00:31:37.333Z,81.20
2019-03-31T00:32:42.218Z,77.67
2019-03-31T00:33:47.228Z,74.50
2019-03-31T00:34:52.230Z,62.70
2019-03-31T00:35:57.087Z,64.47
2019-03-31T00:37:02.040Z,54.47
2019-03-31T00:38:07.002Z,54.13
2019-03-31T00:39:12.374Z,53.27
2019-03-31T00:40:17.201Z,49.73
2019-03-31T00:41:22.151Z,52.97
2019-03-31T00:42:27.011Z,52.20
2019-03-31T00:43:31.949Z,45.07
2019-03-31T00:44:36.827Z,42.23
2019-03-31T00:45:41.710Z,40.80
2019-03-31T00:46:46.594Z,39.47
2019-03-31T00:47:51.450Z,42.80
2019-03-31T00:48:56.394Z,43.60
2019-03-31T00:50:01.297Z,40.87
2019-03-31T00:51:06.165Z,36.93
2019-03-31T00:52:11.065Z,39.80
2019-03-31T00:53:15.979Z,43.43
2019-03-31T00:54:20.903Z,36.63
2019-03-31T00:55:25.883Z,38.40
2019-03-31T00:56:30.858Z,43.37
2019-03-31T00:57:35.714Z,43.60
2019-03-31T00:58:40.569Z,37.83
2019-03-31T00:59:45.522Z,39.33
2019-03-31T01:01:08.737Z,36.00
2019-03-31T01:02:18.226Z,35.37
2019-03-31T01:03:23.315Z,33.67
2019-03-31T01:04:30.003Z,30.43
2019-03-31T01:05:36.435Z,33.27
2019-03-31T01:06:42.056Z,31.93
2019-03-31T01:07:46.985Z,32.70
2019-03-31T01:08:52.038Z,38.07
2019-03-31T01:09:57.932Z,33.43
2019-03-31T01:11:06.863Z,36.97
2019-03-31T01:12:12.014Z,33.27
2019-03-31T01:13:17.260Z,31.97
2019-03-31T01:14:22.893Z,32.63
2019-03-31T01:15:27.910Z,33.23
2019-03-31T01:16:33.466Z,29.33
2019-03-31T01:17:38.475Z,30.20
2019-03-31T01:18:43.606Z,31.43
2019-03-31T01:19:48.699Z,32.50
2019-03-31T01:20:53.717Z,34.27
2019-03-31T01:21:58.880Z,31.90
2019-03-31T01:23:04.768Z,30.70
2019-03-31T01:24:10.034Z,27.53
2019-03-31T01:25:15.760Z,31.07
2019-03-31T01:26:21.975Z,34.90
2019-03-31T01:27:27.118Z,30.17
2019-03-31T01:28:32.642Z,33.20
2019-03-31T01:29:37.666Z,29.40
2019-03-31T01:30:42.849Z,32.23
2019-03-31T01:31:50.689Z,30.03
2019-03-31T01:32:56.805Z,30.37
2019-03-31T01:34:01.698Z,24.77
2019-03-31T01:35:08.285Z,33.23
2019-03-31T01:36:13.337Z,28.90
2019-03-31T01:37:20.108Z,26.63
2019-03-31T01:38:25.198Z,30.73
2019-03-31T01:39:31.661Z,27.77
2019-03-31T01:40:36.692Z,27.17
2019-03-31T01:41:41.791Z,36.03
2019-03-31T01:42:46.778Z,29.50
2019-03-31T01:43:51.789Z,29.80
2019-03-31T01:44:56.827Z,28.23
2019-03-31T01:46:02.180Z,26.97
2019-03-31T01:47:08.202Z,35.37
2019-03-31T01:48:13.063Z,30.17
2019-03-31T01:49:17.956Z,27.10
2019-03-31T01:50:24.059Z,31.80
2019-03-31T01:51:29.055Z,29.30
2019-03-31T01:52:33.951Z,28.43
2019-03-31T01:53:39.056Z,28.17
2019-03-31T01:54:43.960Z,26.50
2019-03-31T01:55:48.991Z,29.00
2019-03-31T01:56:54.002Z,28.07
2019-03-31T01:57:59.117Z,26.13
2019-03-31T01:59:04.015Z,26.33
2019-03-31T02:00:18.335Z,29.40
2019-03-31T02:01:23.310Z,34.77
2019-03-31T02:02:29.457Z,28.93
2019-03-31T02:03:34.626Z,33.37
2019-03-31T02:04:39.748Z,27.80
2019-03-31T02:05:44.929Z,24.67
2019-03-31T02:06:49.860Z,29.90
2019-03-31T02:07:55.016Z,30.37
2019-03-31T02:08:59.993Z,26.83
2019-03-31T02:10:05.696Z,30.53
2019-03-31T02:11:10.939Z,32.10
2019-03-31T02:12:15.923Z,27.63
2019-03-31T02:13:20.903Z,37.13
2019-03-31T02:14:25.986Z,32.37
2019-03-31T02:15:30.978Z,26.10
2019-03-31T02:16:35.931Z,30.77
2019-03-31T02:17:40.868Z,30.20
2019-03-31T02:18:45.763Z,29.47
2019-03-31T02:19:50.785Z,29.87
2019-03-31T02:20:55.785Z,26.33
2019-03-31T02:22:00.790Z,28.87
2019-03-31T02:23:05.777Z,29.73
2019-03-31T02:24:10.755Z,25.33
2019-03-31T02:25:15.608Z,29.30
2019-03-31T02:26:22.069Z,25.27
2019-03-31T02:27:26.953Z,25.77
2019-03-31T02:28:31.809Z,29.40
2019-03-31T02:29:36.712Z,26.77
2019-03-31T02:30:41.639Z,30.33
2019-03-31T02:31:46.610Z,26.30
2019-03-31T02:32:51.601Z,23.80
2019-03-31T02:33:56.573Z,28.87
2019-03-31T02:35:01.554Z,29.97
2019-03-31T02:36:06.585Z,23.93
2019-03-31T02:37:11.592Z,25.17
2019-03-31T02:38:16.513Z,27.97
2019-03-31T02:39:21.468Z,30.83
2019-03-31T02:40:26.444Z,28.73
2019-03-31T02:41:31.462Z,25.67
2019-03-31T02:42:36.416Z,30.70
2019-03-31T02:43:41.322Z,32.93
2019-03-31T02:44:46.355Z,34.20
2019-03-31T02:45:51.229Z,31.57
2019-03-31T02:46:56.228Z,35.47
2019-03-31T02:48:02.332Z,28.03
2019-03-31T02:49:07.345Z,27.80
2019-03-31T02:50:17.655Z,28.87
2019-03-31T02:51:22.594Z,29.70
2019-03-31T02:52:27.566Z,25.23
2019-03-31T02:53:32.599Z,29.00
2019-03-31T02:54:37.604Z,31.50
2019-03-31T02:55:44.078Z,27.30
2019-03-31T02:56:50.132Z,30.40
2019-03-31T02:57:55.547Z,32.10
2019-03-31T02:59:02.228Z,34.57
2019-03-31T03:00:07.508Z,32.77
2019-03-31T03:01:13.658Z,30.53
2019-03-31T03:02:20.524Z,27.87
2019-03-31T03:03:26.342Z,28.83
2019-03-31T03:04:32.764Z,27.57
2019-03-31T03:05:40.815Z,35.37
2019-03-31T03:06:47.642Z,24.83
2019-03-31T03:07:53.855Z,28.00
2019-03-31T03:09:01.752Z,26.83
2019-03-31T03:10:07.137Z,31.77
2019-03-31T03:11:15.774Z,27.20
2019-03-31T03:12:22.656Z,27.13
2019-03-31T03:13:30.496Z,26.57
2019-03-31T03:14:37.961Z,26.10
2019-03-31T03:16:13.892Z,21.50
2019-03-31T03:17:18.797Z,24.83
2019-03-31T03:18:23.826Z,25.17
2019-03-31T03:19:28.764Z,24.77
2019-03-31T03:20:33.747Z,18.37
2019-03-31T03:21:38.669Z,21.13
2019-03-31T03:22:43.510Z,23.53
2019-03-31T03:23:48.517Z,20.90
2019-03-31T03:24:53.464Z,23.47
2019-03-31T03:25:58.421Z,22.57
2019-03-31T03:27:03.527Z,22.37
2019-03-31T03:28:08.409Z,22.13
2019-03-31T03:29:13.305Z,25.23
2019-03-31T03:30:18.407Z,26.20
2019-03-31T03:31:23.525Z,19.47
2019-03-31T03:32:28.545Z,20.93
2019-03-31T03:33:33.492Z,21.93
2019-03-31T03:34:38.546Z,20.77
2019-03-31T03:35:43.495Z,24.00
2019-03-31T03:36:48.596Z,24.00
2019-03-31T03:37:53.588Z,19.73
2019-03-31T03:38:58.647Z,23.13
2019-03-31T03:40:03.696Z,21.87
2019-03-31T03:41:08.805Z,19.60
2019-03-31T03:42:13.703Z,19.30
2019-03-31T03:43:18.687Z,23.83
2019-03-31T03:44:23.573Z,25.33
2019-03-31T03:45:28.440Z,22.73
2019-03-31T03:46:33.395Z,23.37
2019-03-31T03:47:38.433Z,22.13
2019-03-31T03:48:43.382Z,21.77
2019-03-31T03:49:48.311Z,26.93
2019-03-31T03:50:53.246Z,27.57
2019-03-31T03:51:58.451Z,26.47
2019-03-31T03:53:03.479Z,24.47
2019-03-31T03:54:08.427Z,26.27
2019-03-31T03:55:13.356Z,26.70
2019-03-31T03:56:18.265Z,30.53
2019-03-31T03:57:23.221Z,28.70
2019-03-31T03:58:28.266Z,29.53
2019-03-31T03:59:33.175Z,31.80
2019-03-31T04:00:38.231Z,34.00
2019-03-31T04:01:43.271Z,34.20
2019-03-31T04:02:48.160Z,36.93
2019-03-31T04:03:53.145Z,31.47
2019-03-31T04:04:58.104Z,30.83
2019-03-31T04:06:03.152Z,31.83
2019-03-31T04:07:08.049Z,30.67
2019-03-31T04:08:13.019Z,26.53
2019-03-31T04:09:17.916Z,27.53
2019-03-31T04:11:05.781Z,21.63
2019-03-31T04:12:10.984Z,25.13
2019-03-31T04:13:16.408Z,23.17
2019-03-31T04:14:21.384Z,24.63
2019-03-31T04:15:26.295Z,25.13
2019-03-31T04:16:31.282Z,25.23
2019-03-31T04:17:36.410Z,22.40
2019-03-31T04:18:41.539Z,20.93
2019-03-31T04:19:46.538Z,22.17
2019-03-31T04:20:51.494Z,18.63
2019-03-31T04:21:56.392Z,16.60
2019-03-31T04:23:01.319Z,18.33
2019-03-31T04:24:06.399Z,22.37
2019-03-31T04:25:11.426Z,16.17
2019-03-31T04:26:16.481Z,20.73
2019-03-31T04:27:21.477Z,18.97
2019-03-31T04:28:26.398Z,15.13
2019-03-31T04:29:31.316Z,19.80
2019-03-31T04:30:36.370Z,20.47
2019-03-31T04:31:41.266Z,13.80
2019-03-31T04:32:46.224Z,15.80
2019-03-31T04:33:52.868Z,14.77
2019-03-31T04:34:57.770Z,14.90
2019-03-31T04:36:02.857Z,13.43
2019-03-31T04:37:08.811Z,13.53
2019-03-31T04:38:13.723Z,13.97
2019-03-31T04:39:18.980Z,16.20
2019-03-31T04:40:23.915Z,11.70
2019-03-31T04:41:28.909Z,12.73
2019-03-31T04:42:33.893Z,12.53
2019-03-31T04:43:39.048Z,12.77
2019-03-31T04:44:44.102Z,12.13
2019-03-31T04:45:49.023Z,11.77
2019-03-31T04:46:54.044Z,10.73
2019-03-31T04:47:59.152Z,15.30
2019-03-31T04:49:04.314Z,12.80
2019-03-31T04:50:09.554Z,13.63
2019-03-31T04:51:14.601Z,14.47
2019-03-31T04:52:19.513Z,11.53
2019-03-31T04:53:24.402Z,12.70
2019-03-31T04:54:29.307Z,8.57
2019-03-31T04:55:34.259Z,8.23
2019-03-31T04:56:39.177Z,14.07
2019-03-31T04:57:44.071Z,9.83
2019-03-31T04:58:49.181Z,8.30
2019-03-31T04:59:54.243Z,9.67
2019-03-31T05:00:59.607Z,12.50
2019-03-31T05:02:04.667Z,9.70
2019-03-31T05:03:09.754Z,8.03
2019-03-31T05:04:14.748Z,9.60
2019-03-31T05:05:19.767Z,9.67
2019-03-31T05:06:25.071Z,6.87
2019-03-31T05:07:30.006Z,10.17
2019-03-31T05:08:35.002Z,12.47
2019-03-31T05:09:40.062Z,11.50
2019-03-31T05:10:45.007Z,9.23
2019-03-31T05:11:50.043Z,12.27
2019-03-31T05:12:55.026Z,8.33
2019-03-31T05:13:59.959Z,13.83
2019-03-31T05:15:05.518Z,11.77
2019-03-31T05:16:10.721Z,11.80
2019-03-31T05:17:15.753Z,10.20
2019-03-31T05:18:20.691Z,12.27
2019-03-31T05:19:25.683Z,13.03
2019-03-31T05:20:30.632Z,10.23
2019-03-31T05:21:35.679Z,10.97
2019-03-31T05:22:40.587Z,10.47
2019-03-31T05:23:45.579Z,11.50
2019-03-31T05:24:50.579Z,10.93
2019-03-31T05:25:55.502Z,10.33
2019-03-31T05:27:00.561Z,11.70
2019-03-31T05:28:06.937Z,14.30
2019-03-31T05:29:11.855Z,10.33
2019-03-31T05:30:16.853Z,7.53
2019-03-31T05:31:21.805Z,11.17
2019-03-31T05:32:26.742Z,11.10
2019-03-31T05:33:31.698Z,14.03
2019-03-31T05:34:36.604Z,13.37
2019-03-31T05:35:41.733Z,13.40
2019-03-31T05:36:46.589Z,16.10
2019-03-31T05:37:51.645Z,11.63
2019-03-31T05:38:56.884Z,13.47
2019-03-31T05:40:01.904Z,13.10
2019-03-31T05:41:06.930Z,12.80
2019-03-31T05:42:11.856Z,12.90
2019-03-31T05:43:16.971Z,10.43
2019-03-31T05:44:22.027Z,11.93
2019-03-31T05:45:26.912Z,12.13
2019-03-31T05:46:31.791Z,11.60
2019-03-31T05:47:36.655Z,15.37
2019-03-31T05:48:41.748Z,16.00
2019-03-31T05:49:46.775Z,15.23
2019-03-31T05:50:51.771Z,13.40
2019-03-31T05:51:56.757Z,15.40
2019-03-31T05:53:01.714Z,16.90
2019-03-31T05:54:06.854Z,12.50
2019-03-31T05:55:12.042Z,14.33
2019-03-31T05:56:17.031Z,16.13
2019-03-31T05:57:22.186Z,15.73
2019-03-31T05:58:27.349Z,17.43
2019-03-31T05:59:32.406Z,16.30
2019-03-31T06:00:40.805Z,17.47
2019-03-31T06:01:46.071Z,15.43
2019-03-31T06:02:51.050Z,16.27
2019-03-31T06:03:56.149Z,13.70
2019-03-31T06:05:01.153Z,10.77
2019-03-31T06:06:06.104Z,15.60
2019-03-31T06:07:11.074Z,12.00
2019-03-31T06:08:16.043Z,15.07
2019-03-31T06:09:21.112Z,11.47
2019-03-31T06:10:26.187Z,19.13
2019-03-31T06:11:31.057Z,14.43
2019-03-31T06:12:35.914Z,12.57
2019-03-31T06:13:40.749Z,15.13
2019-03-31T06:14:45.716Z,14.37
2019-03-31T06:15:50.674Z,15.63
2019-03-31T06:16:55.656Z,13.30
2019-03-31T06:18:00.496Z,16.00
2019-03-31T06:19:05.367Z,9.80
2019-03-31T06:20:10.475Z,12.97
2019-03-31T06:21:15.353Z,17.00
2019-03-31T06:22:20.280Z,15.40
2019-03-31T06:23:25.176Z,15.30
2019-03-31T06:24:30.154Z,16.60
2019-03-31T06:25:35.021Z,14.87
2019-03-31T06:26:39.887Z,13.53
2019-03-31T06:27:44.878Z,17.40
2019-03-31T06:28:49.864Z,16.03
2019-03-31T06:29:54.776Z,16.87
2019-03-31T06:30:59.714Z,15.27
2019-03-31T06:32:04.603Z,14.77
2019-03-31T06:33:09.494Z,14.23
2019-03-31T06:34:14.500Z,16.57
2019-03-31T06:35:19.524Z,14.67
2019-03-31T06:36:24.573Z,14.97
2019-03-31T06:37:29.527Z,15.30
2019-03-31T06:38:34.381Z,13.10
2019-03-31T06:39:39.372Z,16.53
2019-03-31T06:40:46.447Z,15.47
2019-03-31T06:41:51.413Z,12.67
2019-03-31T06:42:56.559Z,15.00
2019-03-31T06:44:01.539Z,16.33
2019-03-31T06:45:06.791Z,12.67
2019-03-31T06:46:11.685Z,11.53
2019-03-31T06:47:16.666Z,17.10
2019-03-31T06:48:21.594Z,15.87
2019-03-31T06:49:26.493Z,17.87
2019-03-31T06:50:31.434Z,15.37
2019-03-31T06:51:36.368Z,15.00
2019-03-31T06:52:41.247Z,18.97
2019-03-31T06:53:46.148Z,18.67
2019-03-31T06:54:51.033Z,26.70
2019-03-31T06:55:56.039Z,15.80
2019-03-31T06:57:01.200Z,18.20
2019-03-31T06:58:06.085Z,26.53
2019-03-31T06:59:11.047Z,10.50
2019-03-31T07:00:16.488Z,16.70
2019-03-31T07:01:21.367Z,15.70
2019-03-31T07:02:26.229Z,15.20
2019-03-31T07:03:31.290Z,18.73
2019-03-31T07:04:36.192Z,22.77
2019-03-31T07:05:41.139Z,17.37
2019-03-31T07:06:46.067Z,16.43
2019-03-31T07:07:51.018Z,20.80
2019-03-31T07:08:55.885Z,21.20
2019-03-31T07:10:00.847Z,18.37
2019-03-31T07:11:05.807Z,21.03
2019-03-31T07:12:10.855Z,14.50
2019-03-31T07:13:15.853Z,18.73
2019-03-31T07:14:21.013Z,24.10
2019-03-31T07:15:26.087Z,12.73
2019-03-31T07:16:31.226Z,16.43
2019-03-31T07:17:36.138Z,15.43
2019-03-31T07:18:41.073Z,14.97
2019-03-31T07:19:45.986Z,19.90
2019-03-31T07:20:51.247Z,21.00
2019-03-31T07:21:56.598Z,18.83
2019-03-31T07:23:01.516Z,12.97
2019-03-31T07:24:06.786Z,20.60
2019-03-31T07:25:13.565Z,16.43
2019-03-31T07:26:18.505Z,18.67
2019-03-31T07:27:23.612Z,18.03
2019-03-31T07:28:28.584Z,16.50
2019-03-31T07:29:33.691Z,16.13
2019-03-31T07:30:38.656Z,21.23
2019-03-31T07:31:43.818Z,17.47
2019-03-31T07:32:48.886Z,22.27
2019-03-31T07:33:53.862Z,16.63
2019-03-31T07:34:58.984Z,18.03
2019-03-31T07:36:03.980Z,13.07
2019-03-31T07:37:08.976Z,19.57
2019-03-31T07:38:13.989Z,13.03
2019-03-31T07:39:19.072Z,24.10
2019-03-31T07:40:24.718Z,15.20
2019-03-31T07:41:30.237Z,16.07
2019-03-31T07:42:35.489Z,17.87
2019-03-31T07:43:40.601Z,16.40
2019-03-31T07:44:45.565Z,18.50
2019-03-31T07:45:50.516Z,17.67
2019-03-31T07:46:55.576Z,13.83
2019-03-31T07:48:00.696Z,19.70
2019-03-31T07:49:05.740Z,16.87
2019-03-31T07:50:11.731Z,14.60
2019-03-31T07:51:16.813Z,15.80
2019-03-31T07:52:27.376Z,24.47
2019-03-31T07:53:32.345Z,19.17
2019-03-31T07:54:40.953Z,15.87
2019-03-31T07:55:47.120Z,18.10
2019-03-31T07:56:53.123Z,17.43
2019-03-31T07:57:59.242Z,18.70
2019-03-31T07:59:04.371Z,16.93
2019-03-31T08:00:22.563Z,11.30
2019-03-31T08:01:27.703Z,17.63
2019-03-31T08:02:32.762Z,21.17
2019-03-31T08:03:40.303Z,19.13
2019-03-31T08:04:45.215Z,16.07
2019-03-31T08:05:50.247Z,21.30
2019-03-31T08:06:55.485Z,20.63
2019-03-31T08:08:00.499Z,16.77
2019-03-31T08:09:07.112Z,17.77
2019-03-31T08:10:13.186Z,28.23
2019-03-31T08:11:18.211Z,15.37
2019-03-31T08:12:23.257Z,14.13
2019-03-31T08:13:28.254Z,18.90
2019-03-31T08:14:33.459Z,19.80
2019-03-31T08:15:38.505Z,18.00
2019-03-31T08:16:43.503Z,17.80
2019-03-31T08:17:48.759Z,13.60
2019-03-31T08:18:59.465Z,14.87
2019-03-31T08:20:05.449Z,13.90
2019-03-31T08:21:10.437Z,14.70
2019-03-31T08:22:15.513Z,15.00
2019-03-31T08:23:20.585Z,16.70
2019-03-31T08:24:26.967Z,13.87
2019-03-31T08:25:32.913Z,14.30
2019-03-31T08:26:38.042Z,9.77
2019-03-31T08:27:43.150Z,14.73
2019-03-31T08:28:48.584Z,15.87
2019-03-31T08:30:00.404Z,12.47
2019-03-31T08:31:00.593Z,13.73
2019-03-31T08:32:05.807Z,11.40
2019-03-31T08:33:10.827Z,9.90
2019-03-31T08:34:17.279Z,16.37
2019-03-31T08:35:22.347Z,12.80
2019-03-31T08:36:27.242Z,13.97
2019-03-31T08:37:33.210Z,10.27
2019-03-31T08:38:53.083Z,10.83
2019-03-31T08:39:58.001Z,13.00
2019-03-31T08:41:09.148Z,13.67
2019-03-31T08:42:14.081Z,15.37
2019-03-31T08:43:19.066Z,10.83
2019-03-31T08:44:23.984Z,11.13
2019-03-31T08:45:30.615Z,10.00
2019-03-31T08:46:35.956Z,10.57
2019-03-31T08:47:40.827Z,11.57
2019-03-31T08:48:45.984Z,20.17
2019-03-31T08:49:50.983Z,11.37
2019-03-31T08:50:55.952Z,11.50
2019-03-31T08:52:01.017Z,13.27
2019-03-31T08:53:06.094Z,11.03
2019-03-31T08:54:10.985Z,10.80
2019-03-31T08:55:16.094Z,13.13
2019-03-31T08:56:21.018Z,10.27
2019-03-31T08:57:26.123Z,9.47
2019-03-31T08:58:31.211Z,12.33
2019-03-31T08:59:36.086Z,13.20
2019-03-31T09:00:54.543Z,10.57
2019-03-31T09:02:03.349Z,8.07
2019-03-31T09:03:08.272Z,6.63
2019-03-31T09:04:13.277Z,6.77
2019-03-31T09:05:18.268Z,7.10
2019-03-31T09:06:23.337Z,7.47
2019-03-31T09:07:28.379Z,10.97
2019-03-31T09:08:33.338Z,11.60
2019-03-31T09:09:38.286Z,12.43
2019-03-31T09:10:43.228Z,9.50
2019-03-31T09:11:48.256Z,7.23
2019-03-31T09:12:53.340Z,13.50
2019-03-31T09:13:58.507Z,8.70
2019-03-31T09:15:03.491Z,8.27
2019-03-31T09:16:08.445Z,10.77
2019-03-31T09:17:13.368Z,10.00
2019-03-31T09:18:18.226Z,9.00
2019-03-31T09:19:23.228Z,14.30
2019-03-31T09:20:28.175Z,8.03
2019-03-31T09:21:33.174Z,10.80
2019-03-31T09:22:38.158Z,7.17
2019-03-31T09:23:43.036Z,12.37
2019-03-31T09:24:47.994Z,6.37
2019-03-31T09:25:52.906Z,10.33
2019-03-31T09:26:57.890Z,8.73
2019-03-31T09:28:02.809Z,11.50
2019-03-31T09:29:07.697Z,10.03
2019-03-31T09:30:13.120Z,6.67
2019-03-31T09:31:18.397Z,8.60
2019-03-31T09:32:23.493Z,9.53
2019-03-31T09:33:28.706Z,6.90
2019-03-31T09:34:33.739Z,9.47
2019-03-31T09:35:38.922Z,13.10
2019-03-31T09:36:43.877Z,9.83
2019-03-31T09:37:48.926Z,7.40
2019-03-31T09:38:53.995Z,7.30
2019-03-31T09:39:58.985Z,5.77
2019-03-31T09:41:04.065Z,5.93
2019-03-31T09:42:09.120Z,5.77
2019-03-31T09:43:14.180Z,5.27
2019-03-31T09:44:19.171Z,9.67
2019-03-31T09:45:24.224Z,5.73
2019-03-31T09:46:29.167Z,5.60
2019-03-31T09:47:34.115Z,5.50
2019-03-31T09:48:39.036Z,7.27
2019-03-31T09:49:44.016Z,6.50
2019-03-31T09:50:48.943Z,6.70
2019-03-31T09:51:53.905Z,4.27
2019-03-31T09:52:59.294Z,7.23
2019-03-31T09:54:04.420Z,3.57
2019-03-31T09:55:10.216Z,7.20
2019-03-31T09:56:15.447Z,5.40
2019-03-31T09:57:20.655Z,7.83
2019-03-31T09:58:28.996Z,5.90
2019-03-31T09:59:34.017Z,9.80
2019-03-31T10:00:46.382Z,6.57
2019-03-31T10:01:51.341Z,7.67
2019-03-31T10:02:56.211Z,10.53
2019-03-31T10:04:01.192Z,9.07
2019-03-31T10:05:07.248Z,6.10
2019-03-31T10:06:12.545Z,7.27
2019-03-31T10:07:18.009Z,8.10
2019-03-31T10:08:23.003Z,6.07
2019-03-31T10:09:28.599Z,6.03
2019-03-31T10:10:34.553Z,9.03
2019-03-31T10:11:40.645Z,8.23
2019-03-31T10:12:46.511Z,6.73
2019-03-31T10:13:51.475Z,10.40
2019-03-31T10:14:59.936Z,8.60
2019-03-31T10:16:05.032Z,10.10
2019-03-31T10:17:09.878Z,5.80
2019-03-31T10:18:18.019Z,7.43
2019-03-31T10:19:21.870Z,6.07
2019-03-31T10:20:26.979Z,7.60
2019-03-31T10:21:31.836Z,7.33
2019-03-31T10:22:37.550Z,5.87
2019-03-31T10:23:42.458Z,12.27
2019-03-31T10:24:48.762Z,8.00
2019-03-31T10:25:53.670Z,8.50
2019-03-31T10:26:58.696Z,3.60
2019-03-31T10:28:03.803Z,5.70
2019-03-31T10:29:08.725Z,3.37
2019-03-31T10:30:15.671Z,7.77
2019-03-31T10:31:20.572Z,6.60
2019-03-31T10:32:25.616Z,6.93
2019-03-31T10:33:30.587Z,6.20
2019-03-31T10:34:35.573Z,8.13
2019-03-31T10:35:40.652Z,6.03
2019-03-31T10:36:45.850Z,9.17
2019-03-31T10:37:50.808Z,7.83
2019-03-31T10:38:55.800Z,6.77
2019-03-31T10:40:00.711Z,7.43
2019-03-31T10:41:05.656Z,7.43
2019-03-31T10:42:09.853Z,7.47
2019-03-31T10:43:14.833Z,7.53
2019-03-31T10:44:19.703Z,11.43
2019-03-31T10:45:24.679Z,8.20
2019-03-31T10:46:29.565Z,6.23
2019-03-31T10:47:34.576Z,7.57
2019-03-31T10:48:39.445Z,5.50
2019-03-31T10:49:44.328Z,8.47
2019-03-31T10:50:50.487Z,6.87
2019-03-31T10:51:55.368Z,6.83
2019-03-31T10:53:00.239Z,7.87
2019-03-31T10:54:05.432Z,8.37
2019-03-31T10:55:10.702Z,10.27
2019-03-31T10:56:15.654Z,10.37
2019-03-31T10:57:20.633Z,8.13
2019-03-31T10:58:25.484Z,9.43
2019-03-31T10:59:30.362Z,7.70
2019-03-31T11:00:36.548Z,8.47
2019-03-31T11:01:41.513Z,11.70
2019-03-31T11:02:46.459Z,9.17
2019-03-31T11:03:51.474Z,7.87
2019-03-31T11:04:56.470Z,9.43
2019-03-31T11:06:01.482Z,8.80
2019-03-31T11:07:06.443Z,5.90
2019-03-31T11:08:11.409Z,10.77
2019-03-31T11:09:16.283Z,9.33
2019-03-31T11:10:21.448Z,12.23
2019-03-31T11:11:26.420Z,10.13
2019-03-31T11:12:31.519Z,7.30
2019-03-31T11:13:36.462Z,11.60
2019-03-31T11:14:41.356Z,8.63
2019-03-31T11:15:46.391Z,10.30
2019-03-31T11:16:51.425Z,11.07
2019-03-31T11:17:56.443Z,9.10
2019-03-31T11:19:01.499Z,11.00
2019-03-31T11:20:06.755Z,12.73
2019-03-31T11:21:18.391Z,10.37
2019-03-31T11:22:26.664Z,11.83
2019-03-31T11:23:32.223Z,10.07
2019-03-31T11:24:41.742Z,8.43
2019-03-31T11:25:46.781Z,17.50
2019-03-31T11:26:56.467Z,8.30
2019-03-31T11:28:02.589Z,8.70
2019-03-31T11:29:12.784Z,9.57
2019-03-31T11:30:18.488Z,7.93
2019-03-31T11:31:23.440Z,7.90
2019-03-31T11:32:28.300Z,7.10
2019-03-31T11:33:33.166Z,7.67
2019-03-31T11:34:38.063Z,8.03
2019-03-31T11:35:43.019Z,7.73
2019-03-31T11:36:48.004Z,9.00
2019-03-31T11:37:52.946Z,8.70
2019-03-31T11:38:57.953Z,10.97
2019-03-31T11:40:03.009Z,5.60
2019-03-31T11:41:09.366Z,7.60
2019-03-31T11:42:14.381Z,7.67
2019-03-31T11:43:19.440Z,8.33
2019-03-31T11:44:27.526Z,7.47
2019-03-31T11:45:31.065Z,6.73
2019-03-31T11:46:36.016Z,10.27
2019-03-31T11:47:40.961Z,8.27
2019-03-31T11:48:46.020Z,8.53
2019-03-31T11:49:50.963Z,8.73
2019-03-31T11:50:56.015Z,8.23
2019-03-31T11:52:00.962Z,9.70
2019-03-31T11:53:06.039Z,6.67
2019-03-31T11:54:10.986Z,8.63
2019-03-31T11:55:16.037Z,5.80
2019-03-31T11:56:22.180Z,12.27
2019-03-31T11:57:27.107Z,6.97
2019-03-31T11:58:32.499Z,12.57
2019-03-31T11:59:37.598Z,11.20
2019-03-31T12:00:48.431Z,6.60
2019-03-31T12:01:53.255Z,7.47
2019-03-31T12:02:58.150Z,7.50
2019-03-31T12:04:03.099Z,9.23
2019-03-31T12:05:08.342Z,8.97
2019-03-31T12:06:13.359Z,6.37
2019-03-31T12:07:27.968Z,5.67
2019-03-31T12:08:25.051Z,8.58
2019-03-31T12:09:29.978Z,8.37
2019-03-31T12:10:34.945Z,11.80
2019-03-31T12:11:39.987Z,9.05
2019-03-31T12:12:44.909Z,8.00
2019-03-31T12:13:49.923Z,8.10
2019-03-31T12:15:00.519Z,6.60
2019-03-31T12:16:01.537Z,5.62
2019-03-31T12:17:06.439Z,9.13
2019-03-31T12:18:11.532Z,9.93
2019-03-31T12:19:16.508Z,6.15
2019-03-31T12:20:21.580Z,7.73
2019-03-31T12:21:26.566Z,7.20
2019-03-31T12:22:31.468Z,7.20
2019-03-31T12:23:36.412Z,6.85
2019-03-31T12:24:41.435Z,8.55
2019-03-31T12:25:46.431Z,9.70
2019-03-31T12:26:51.436Z,7.83
2019-03-31T12:27:56.377Z,11.03
2019-03-31T12:29:01.299Z,10.23
2019-03-31T12:30:07.060Z,9.20
2019-03-31T12:31:12.079Z,10.43
2019-03-31T12:32:17.004Z,9.35
2019-03-31T12:33:21.872Z,7.45
2019-03-31T12:34:26.830Z,7.35
2019-03-31T12:35:31.818Z,9.30
2019-03-31T12:36:36.958Z,9.80
2019-03-31T12:37:43.296Z,7.00
2019-03-31T12:38:48.626Z,9.13
2019-03-31T12:39:53.510Z,9.10
2019-03-31T12:40:58.480Z,10.32
2019-03-31T12:42:03.530Z,8.40
2019-03-31T12:43:08.555Z,7.47
2019-03-31T12:44:13.620Z,11.22
2019-03-31T12:45:18.587Z,10.53
2019-03-31T12:46:23.536Z,6.87
2019-03-31T12:47:28.699Z,8.45
2019-03-31T12:48:33.753Z,9.93
2019-03-31T12:49:39.162Z,12.05
2019-03-31T12:50:44.224Z,7.97
2019-03-31T12:51:49.196Z,9.40
2019-03-31T12:52:54.134Z,8.08
2019-03-31T12:53:59.014Z,11.63
2019-03-31T12:55:04.112Z,8.13
2019-03-31T12:56:09.111Z,8.85
2019-03-31T12:57:14.148Z,9.63
2019-03-31T12:58:19.237Z,7.92
2019-03-31T12:59:27.029Z,11.33
2019-03-31T13:00:30.916Z,6.33
2019-03-31T13:01:36.055Z,7.87
2019-03-31T13:02:41.067Z,12.70
2019-03-31T13:03:46.017Z,12.58
2019-03-31T13:04:50.912Z,9.95
2019-03-31T13:05:55.987Z,8.03
2019-03-31T13:07:00.899Z,6.70
2019-03-31T13:08:06.034Z,8.08
2019-03-31T13:09:11.062Z,8.43
2019-03-31T13:10:16.003Z,7.53
2019-03-31T13:11:20.902Z,7.40
2019-03-31T13:12:25.838Z,6.17
2019-03-31T13:13:30.825Z,8.85
2019-03-31T13:14:35.804Z,7.83
2019-03-31T13:15:40.827Z,6.30
2019-03-31T13:16:45.888Z,6.95
2019-03-31T13:17:50.788Z,8.35
2019-03-31T13:18:55.770Z,10.28
2019-03-31T13:20:00.783Z,6.90
2019-03-31T13:21:05.711Z,8.53
2019-03-31T13:22:10.685Z,9.03
2019-03-31T13:23:15.724Z,9.15
2019-03-31T13:24:20.615Z,8.45
2019-03-31T13:25:25.537Z,7.28
2019-03-31T13:26:30.532Z,8.48
2019-03-31T13:27:35.702Z,8.85
2019-03-31T13:28:40.808Z,9.35
2019-03-31T13:29:45.841Z,7.83
2019-03-31T13:30:50.900Z,11.20
2019-03-31T13:31:56.004Z,13.03
2019-03-31T13:33:00.953Z,12.40
2019-03-31T13:34:05.911Z,9.80
2019-03-31T13:35:10.991Z,8.40
2019-03-31T13:36:15.986Z,9.00
2019-03-31T13:37:20.938Z,11.03
2019-03-31T13:38:25.836Z,9.87
2019-03-31T13:39:32.386Z,10.38
2019-03-31T13:40:37.283Z,10.75
2019-03-31T13:41:42.312Z,11.78
2019-03-31T13:42:47.263Z,8.85
2019-03-31T13:43:52.253Z,8.93
2019-03-31T13:44:57.221Z,7.83
2019-03-31T13:46:02.257Z,7.90
2019-03-31T13:47:07.197Z,10.38
2019-03-31T13:48:12.151Z,10.95
2019-03-31T13:49:17.191Z,9.60
2019-03-31T13:50:22.120Z,8.40
2019-03-31T13:51:27.008Z,11.90
2019-03-31T13:52:32.115Z,11.05
2019-03-31T13:53:36.979Z,9.98
2019-03-31T13:54:41.908Z,6.58
2019-03-31T13:55:46.989Z,5.25
2019-03-31T13:56:52.702Z,8.35
2019-03-31T13:57:58.373Z,6.42
2019-03-31T13:59:03.571Z,5.42
2019-03-31T14:00:10.884Z,9.20
2019-03-31T14:01:16.026Z,7.42
2019-03-31T14:02:21.683Z,9.53
2019-03-31T14:03:26.623Z,6.15
2019-03-31T14:04:31.660Z,8.88
2019-03-31T14:05:36.720Z,6.33
2019-03-31T14:06:41.603Z,8.25
2019-03-31T14:07:46.564Z,8.23
2019-03-31T14:08:51.470Z,7.83
2019-03-31T14:09:56.390Z,9.23
2019-03-31T14:11:01.323Z,7.87
2019-03-31T14:12:06.227Z,9.13